sensor_id;sensor_type;location;lat;lon;timestamp;pressure;altitude;pressure_sealevel;temperature;humidity
43450;BME280;29041;42.266;23.110;2023-07-08T00:00:14;96064.47;;;20.17;100.00
43450;BME280;29041;42.266;23.110;2023-07-08T00:03:03;96061.16;;;19.59;100.00
43450;BME280;29041;42.266;23.110;2023-07-08T00:05:54;96060.59;;;20.21;100.00
43450;BME280;29041;42.266;23.110;2023-07-08T00:08:42;96063.97;;;20.59;100.00
43450;BME280;29041;42.266;23.110;2023-07-08T00:11:29;96065.97;;;20.10;100.00
43450;BME280;29041;42.266;23.110;2023-07-08T00:14:16;96071.94;;;20.79;100.00
43450;BME280;29041;42.266;23.110;2023-07-08T00:17:10;96067.00;;;20.47;100.00
43450;BME280;29041;42.266;23.110;2023-07-08T00:19:58;96070.41;;;20.89;100.00
43450;BME280;29041;42.266;23.110;2023-07-08T00:22:45;96068.28;;;20.64;100.00
43450;BME280;29041;42.266;23.110;2023-07-08T00:25:35;96067.88;;;20.58;100.00
43450;BME280;29041;42.266;23.110;2023-07-08T00:28:23;96066.75;;;20.11;100.00
43450;BME280;29041;42.266;23.110;2023-07-08T00:31:10;96074.16;;;20.70;100.00
43450;BME280;29041;42.266;23.110;2023-07-08T00:33:57;96073.16;;;20.89;100.00
43450;BME280;29041;42.266;23.110;2023-07-08T00:36:46;96064.22;;;20.96;98.56
43450;BME280;29041;42.266;23.110;2023-07-08T00:39:33;96057.41;;;20.68;100.00
43450;BME280;29041;42.266;23.110;2023-07-08T00:42:22;96063.06;;;19.92;100.00
43450;BME280;29041;42.266;23.110;2023-07-08T00:45:31;96060.25;;;20.26;100.00
43450;BME280;29041;42.266;23.110;2023-07-08T00:48:23;96061.91;;;20.38;100.00
43450;BME280;29041;42.266;23.110;2023-07-08T00:51:11;96064.09;;;20.22;100.00
43450;BME280;29041;42.266;23.110;2023-07-08T00:54:00;96053.22;;;20.25;100.00
43450;BME280;29041;42.266;23.110;2023-07-08T00:56:49;96062.44;;;20.10;100.00
43450;BME280;29041;42.266;23.110;2023-07-08T00:59:45;96062.19;;;20.29;100.00
43450;BME280;29041;42.266;23.110;2023-07-08T01:02:36;96066.91;;;19.84;100.00
43450;BME280;29041;42.266;23.110;2023-07-08T01:05:27;96056.59;;;19.32;100.00
43450;BME280;29041;42.266;23.110;2023-07-08T01:08:16;96041.41;;;19.28;100.00
43450;BME280;29041;42.266;23.110;2023-07-08T01:11:05;96043.31;;;19.27;100.00
43450;BME280;29041;42.266;23.110;2023-07-08T01:13:52;96055.88;;;19.36;100.00
43450;BME280;29041;42.266;23.110;2023-07-08T01:16:40;96058.09;;;19.26;100.00
43450;BME280;29041;42.266;23.110;2023-07-08T01:19:27;96048.38;;;19.29;100.00
43450;BME280;29041;42.266;23.110;2023-07-08T01:22:20;96055.09;;;19.35;100.00
43450;BME280;29041;42.266;23.110;2023-07-08T01:25:08;96054.56;;;19.22;100.00
43450;BME280;29041;42.266;23.110;2023-07-08T01:27:56;96051.50;;;19.27;100.00
43450;BME280;29041;42.266;23.110;2023-07-08T01:30:45;96051.13;;;19.29;100.00
43450;BME280;29041;42.266;23.110;2023-07-08T01:33:33;96057.44;;;19.37;100.00
43450;BME280;29041;42.266;23.110;2023-07-08T01:36:20;96049.22;;;19.33;100.00
43450;BME280;29041;42.266;23.110;2023-07-08T01:39:12;96052.28;;;19.28;100.00
43450;BME280;29041;42.266;23.110;2023-07-08T01:41:59;96055.94;;;19.43;100.00
43450;BME280;29041;42.266;23.110;2023-07-08T01:44:46;96051.84;;;19.22;100.00
43450;BME280;29041;42.266;23.110;2023-07-08T01:47:34;96058.75;;;19.16;100.00
43450;BME280;29041;42.266;23.110;2023-07-08T01:50:21;96056.91;;;19.58;100.00
43450;BME280;29041;42.266;23.110;2023-07-08T01:53:13;96051.69;;;19.45;100.00
43450;BME280;29041;42.266;23.110;2023-07-08T01:56:03;96049.16;;;19.26;100.00
43450;BME280;29041;42.266;23.110;2023-07-08T01:58:50;96047.66;;;19.32;100.00
43450;BME280;29041;42.266;23.110;2023-07-08T02:01:37;96053.59;;;19.41;100.00
43450;BME280;29041;42.266;23.110;2023-07-08T02:04:25;96056.69;;;19.77;100.00
43450;BME280;29041;42.266;23.110;2023-07-08T02:07:16;96052.59;;;19.57;100.00
43450;BME280;29041;42.266;23.110;2023-07-08T02:10:03;96054.75;;;19.40;100.00
43450;BME280;29041;42.266;23.110;2023-07-08T02:12:52;96055.88;;;19.36;100.00
43450;BME280;29041;42.266;23.110;2023-07-08T02:15:40;96055.56;;;19.44;100.00
43450;BME280;29041;42.266;23.110;2023-07-08T02:18:27;96056.13;;;19.61;100.00
43450;BME280;29041;42.266;23.110;2023-07-08T02:21:18;96049.94;;;19.64;100.00
43450;BME280;29041;42.266;23.110;2023-07-08T02:24:05;96056.94;;;19.61;100.00
43450;BME280;29041;42.266;23.110;2023-07-08T02:26:53;96047.31;;;19.37;100.00
43450;BME280;29041;42.266;23.110;2023-07-08T02:29:41;96042.94;;;19.29;100.00
43450;BME280;29041;42.266;23.110;2023-07-08T02:32:28;96041.41;;;19.28;100.00
43450;BME280;29041;42.266;23.110;2023-07-08T02:35:15;96040.88;;;19.15;100.00
43450;BME280;29041;42.266;23.110;2023-07-08T02:38:02;96037.31;;;19.11;100.00
43450;BME280;29041;42.266;23.110;2023-07-08T02:40:50;96051.66;;;19.42;100.00
43450;BME280;29041;42.266;23.110;2023-07-08T02:43:38;96050.53;;;19.46;100.00
43450;BME280;29041;42.266;23.110;2023-07-08T02:46:27;96051.16;;;19.32;100.00
43450;BME280;29041;42.266;23.110;2023-07-08T02:49:14;96054.69;;;19.33;100.00
43450;BME280;29041;42.266;23.110;2023-07-08T02:52:01;96051.06;;;19.25;100.00
43450;BME280;29041;42.266;23.110;2023-07-08T02:54:48;96050.22;;;19.17;100.00
43450;BME280;29041;42.266;23.110;2023-07-08T02:57:35;96056.56;;;19.29;100.00
43450;BME280;29041;42.266;23.110;2023-07-08T03:00:22;96057.56;;;19.47;100.00
43450;BME280;29041;42.266;23.110;2023-07-08T03:03:14;96070.69;;;20.17;100.00
43450;BME280;29041;42.266;23.110;2023-07-08T03:06:03;96070.59;;;20.55;100.00
43450;BME280;29041;42.266;23.110;2023-07-08T03:08:51;96073.97;;;20.41;100.00
43450;BME280;29041;42.266;23.110;2023-07-08T03:11:39;96061.50;;;19.88;100.00
43450;BME280;29041;42.266;23.110;2023-07-08T03:14:26;96062.00;;;19.63;100.00
43450;BME280;29041;42.266;23.110;2023-07-08T03:17:13;96055.28;;;19.53;100.00
43450;BME280;29041;42.266;23.110;2023-07-08T03:20:06;96049.97;;;19.30;100.00
43450;BME280;29041;42.266;23.110;2023-07-08T03:22:54;96045.66;;;19.29;100.00
43450;BME280;29041;42.266;23.110;2023-07-08T03:25:41;96041.44;;;19.31;100.00
43450;BME280;29041;42.266;23.110;2023-07-08T03:28:28;96035.50;;;19.22;100.00
43450;BME280;29041;42.266;23.110;2023-07-08T03:31:17;96035.03;;;19.16;100.00
43450;BME280;29041;42.266;23.110;2023-07-08T03:34:04;96031.03;;;19.07;100.00
43450;BME280;29041;42.266;23.110;2023-07-08T03:36:53;96029.09;;;19.07;100.00
43450;BME280;29041;42.266;23.110;2023-07-08T03:39:40;96029.38;;;18.98;100.00
43450;BME280;29041;42.266;23.110;2023-07-08T03:42:27;96037.59;;;19.02;100.00
43450;BME280;29041;42.266;23.110;2023-07-08T03:45:14;96035.97;;;18.97;100.00
43450;BME280;29041;42.266;23.110;2023-07-08T03:48:02;96036.63;;;18.87;100.00
43450;BME280;29041;42.266;23.110;2023-07-08T03:50:49;96036.81;;;19.01;100.00
43450;BME280;29041;42.266;23.110;2023-07-08T03:53:38;96039.81;;;18.93;100.00
43450;BME280;29041;42.266;23.110;2023-07-08T03:56:25;96039.88;;;19.00;100.00
43450;BME280;29041;42.266;23.110;2023-07-08T03:59:12;96033.50;;;19.19;100.00
43450;BME280;29041;42.266;23.110;2023-07-08T04:01:59;96044.28;;;19.84;100.00
43450;BME280;29041;42.266;23.110;2023-07-08T04:04:46;96039.78;;;19.99;100.00
43450;BME280;29041;42.266;23.110;2023-07-08T04:07:33;96031.13;;;19.52;100.00
43450;BME280;29041;42.266;23.110;2023-07-08T04:10:22;96041.88;;;19.37;100.00
43450;BME280;29041;42.266;23.110;2023-07-08T04:13:10;96045.44;;;19.41;100.00
43450;BME280;29041;42.266;23.110;2023-07-08T04:15:59;96053.16;;;20.15;100.00
43450;BME280;29041;42.266;23.110;2023-07-08T04:18:47;96064.72;;;20.53;100.00
43450;BME280;29041;42.266;23.110;2023-07-08T04:21:36;96058.47;;;20.00;100.00
43450;BME280;29041;42.266;23.110;2023-07-08T04:24:23;96061.28;;;20.11;100.00
43450;BME280;29041;42.266;23.110;2023-07-08T04:27:15;96062.91;;;19.78;100.00
43450;BME280;29041;42.266;23.110;2023-07-08T04:30:03;96062.66;;;19.87;100.00
43450;BME280;29041;42.266;23.110;2023-07-08T04:32:50;96050.88;;;19.82;100.00
43450;BME280;29041;42.266;23.110;2023-07-08T04:35:38;96076.16;;;19.79;100.00
43450;BME280;29041;42.266;23.110;2023-07-08T04:38:27;96067.94;;;19.72;100.00
43450;BME280;29041;42.266;23.110;2023-07-08T04:41:14;96072.53;;;20.06;100.00
43450;BME280;29041;42.266;23.110;2023-07-08T04:44:02;96073.44;;;20.21;100.00
43450;BME280;29041;42.266;23.110;2023-07-08T04:46:52;96068.59;;;20.52;100.00
43450;BME280;29041;42.266;23.110;2023-07-08T04:49:41;96071.75;;;20.54;100.00
43450;BME280;29041;42.266;23.110;2023-07-08T04:52:29;96084.59;;;20.05;100.00
43450;BME280;29041;42.266;23.110;2023-07-08T04:55:16;96082.06;;;20.26;100.00
43450;BME280;29041;42.266;23.110;2023-07-08T04:58:03;96080.69;;;20.54;99.41
43450;BME280;29041;42.266;23.110;2023-07-08T05:00:52;96091.03;;;20.79;96.49
43450;BME280;29041;42.266;23.110;2023-07-08T05:03:49;96090.91;;;20.16;97.18
43450;BME280;29041;42.266;23.110;2023-07-08T05:06:36;96094.63;;;20.42;96.83
43450;BME280;29041;42.266;23.110;2023-07-08T05:09:23;96097.41;;;20.45;97.34
43450;BME280;29041;42.266;23.110;2023-07-08T05:12:11;96100.81;;;20.84;95.14
43450;BME280;29041;42.266;23.110;2023-07-08T05:14:58;96114.91;;;20.44;96.65
43450;BME280;29041;42.266;23.110;2023-07-08T05:17:47;96118.09;;;20.54;96.44
43450;BME280;29041;42.266;23.110;2023-07-08T05:20:34;96118.75;;;20.36;97.12
43450;BME280;29041;42.266;23.110;2023-07-08T05:23:22;96108.94;;;20.28;98.61
43450;BME280;29041;42.266;23.110;2023-07-08T05:26:10;96113.47;;;20.09;100.00
43450;BME280;29041;42.266;23.110;2023-07-08T05:28:57;96115.47;;;20.20;99.84
43450;BME280;29041;42.266;23.110;2023-07-08T05:31:44;96121.13;;;20.45;98.36
43450;BME280;29041;42.266;23.110;2023-07-08T05:34:32;96121.56;;;20.51;100.00
43450;BME280;29041;42.266;23.110;2023-07-08T05:37:30;96130.34;;;20.74;98.85
43450;BME280;29041;42.266;23.110;2023-07-08T05:40:17;96133.69;;;21.09;96.14
43450;BME280;29041;42.266;23.110;2023-07-08T05:43:04;96132.69;;;21.46;94.43
43450;BME280;29041;42.266;23.110;2023-07-08T05:45:51;96134.44;;;21.06;96.07
43450;BME280;29041;42.266;23.110;2023-07-08T05:48:38;96134.69;;;20.34;100.00
43450;BME280;29041;42.266;23.110;2023-07-08T05:51:27;96134.09;;;20.55;100.00
43450;BME280;29041;42.266;23.110;2023-07-08T05:54:19;96150.88;;;20.61;95.75
43450;BME280;29041;42.266;23.110;2023-07-08T05:57:09;96155.88;;;20.52;96.40
43450;BME280;29041;42.266;23.110;2023-07-08T05:59:56;96155.06;;;20.48;93.76
43450;BME280;29041;42.266;23.110;2023-07-08T06:02:44;96148.59;;;20.70;92.28
43450;BME280;29041;42.266;23.110;2023-07-08T06:05:31;96142.31;;;21.18;90.19
43450;BME280;29041;42.266;23.110;2023-07-08T06:08:21;96154.97;;;21.52;88.17
43450;BME280;29041;42.266;23.110;2023-07-08T06:11:08;96144.19;;;21.92;83.99
43450;BME280;29041;42.266;23.110;2023-07-08T06:13:55;96151.94;;;21.75;82.93
43450;BME280;29041;42.266;23.110;2023-07-08T06:16:43;96161.22;;;21.56;86.99
43450;BME280;29041;42.266;23.110;2023-07-08T06:19:31;96164.31;;;21.47;81.37
43450;BME280;29041;42.266;23.110;2023-07-08T06:22:18;96146.53;;;21.90;84.03
43450;BME280;29041;42.266;23.110;2023-07-08T06:25:07;96158.47;;;21.52;84.52
43450;BME280;29041;42.266;23.110;2023-07-08T06:27:55;96159.09;;;21.20;84.40
43450;BME280;29041;42.266;23.110;2023-07-08T06:30:42;96171.34;;;21.52;83.11
43450;BME280;29041;42.266;23.110;2023-07-08T06:33:29;96158.13;;;21.61;84.17
43450;BME280;29041;42.266;23.110;2023-07-08T06:36:16;96167.44;;;21.53;81.81
43450;BME280;29041;42.266;23.110;2023-07-08T06:39:03;96174.31;;;21.25;82.46
43450;BME280;29041;42.266;23.110;2023-07-08T06:41:54;96174.03;;;21.48;82.59
43450;BME280;29041;42.266;23.110;2023-07-08T06:44:41;96163.41;;;21.25;85.42
43450;BME280;29041;42.266;23.110;2023-07-08T06:47:35;96146.09;;;21.80;82.82
43450;BME280;29041;42.266;23.110;2023-07-08T06:50:23;96166.75;;;21.70;81.19
43450;BME280;29041;42.266;23.110;2023-07-08T06:53:10;96169.13;;;21.79;79.82
43450;BME280;29041;42.266;23.110;2023-07-08T06:55:57;96157.66;;;21.48;82.70
43450;BME280;29041;42.266;23.110;2023-07-08T06:58:46;96160.34;;;21.41;82.15
43450;BME280;29041;42.266;23.110;2023-07-08T07:01:33;96155.84;;;21.74;83.86
43450;BME280;29041;42.266;23.110;2023-07-08T07:04:22;96164.41;;;21.62;80.39
43450;BME280;29041;42.266;23.110;2023-07-08T07:07:09;96176.03;;;21.51;80.58
43450;BME280;29041;42.266;23.110;2023-07-08T07:09:56;96158.41;;;21.38;81.82
43450;BME280;29041;42.266;23.110;2023-07-08T07:12:43;96166.16;;;21.29;83.93
43450;BME280;29041;42.266;23.110;2023-07-08T07:15:32;96155.41;;;21.61;80.09
43450;BME280;29041;42.266;23.110;2023-07-08T07:18:19;96161.31;;;21.78;80.37
43450;BME280;29041;42.266;23.110;2023-07-08T07:21:06;96170.34;;;21.85;78.54
43450;BME280;29041;42.266;23.110;2023-07-08T07:23:53;96166.81;;;21.85;78.02
43450;BME280;29041;42.266;23.110;2023-07-08T07:26:40;96163.34;;;21.95;77.06
43450;BME280;29041;42.266;23.110;2023-07-08T07:29:27;96168.75;;;21.77;78.39
43450;BME280;29041;42.266;23.110;2023-07-08T07:32:17;96158.25;;;22.05;78.59
43450;BME280;29041;42.266;23.110;2023-07-08T07:35:06;96164.56;;;22.34;79.43
43450;BME280;29041;42.266;23.110;2023-07-08T07:37:53;96177.09;;;22.39;74.98
43450;BME280;29041;42.266;23.110;2023-07-08T07:40:40;96168.47;;;22.33;76.86
43450;BME280;29041;42.266;23.110;2023-07-08T07:43:28;96181.34;;;22.18;76.66
43450;BME280;29041;42.266;23.110;2023-07-08T07:46:15;96182.38;;;21.70;79.80
43450;BME280;29041;42.266;23.110;2023-07-08T07:49:04;96181.72;;;22.13;80.54
43450;BME280;29041;42.266;23.110;2023-07-08T07:51:51;96185.72;;;22.52;76.89
43450;BME280;29041;42.266;23.110;2023-07-08T07:54:38;96186.50;;;22.85;76.49
43450;BME280;29041;42.266;23.110;2023-07-08T07:57:25;96190.78;;;22.96;77.80
43450;BME280;29041;42.266;23.110;2023-07-08T08:00:13;96184.47;;;22.38;75.25
43450;BME280;29041;42.266;23.110;2023-07-08T08:03:00;96187.59;;;22.29;75.69
43450;BME280;29041;42.266;23.110;2023-07-08T08:05:49;96191.97;;;22.52;75.59
43450;BME280;29041;42.266;23.110;2023-07-08T08:08:36;96197.03;;;22.82;74.23
43450;BME280;29041;42.266;23.110;2023-07-08T08:11:24;96194.56;;;23.57;72.20
43450;BME280;29041;42.266;23.110;2023-07-08T08:14:11;96181.06;;;25.88;63.35
43450;BME280;29041;42.266;23.110;2023-07-08T08:16:58;96166.09;;;26.98;58.86
43450;BME280;29041;42.266;23.110;2023-07-08T08:19:45;96175.56;;;25.88;61.01
43450;BME280;29041;42.266;23.110;2023-07-08T08:22:34;96164.22;;;25.13;61.57
43450;BME280;29041;42.266;23.110;2023-07-08T08:25:23;96149.47;;;27.26;57.69
43450;BME280;29041;42.266;23.110;2023-07-08T08:28:10;96158.91;;;26.29;59.74
43450;BME280;29041;42.266;23.110;2023-07-08T08:30:57;96160.56;;;24.85;62.33
43450;BME280;29041;42.266;23.110;2023-07-08T08:33:45;96162.00;;;23.77;65.78
43450;BME280;29041;42.266;23.110;2023-07-08T08:36:32;96148.78;;;23.61;66.81
43450;BME280;29041;42.266;23.110;2023-07-08T08:39:21;96117.69;;;24.00;65.13
43450;BME280;29041;42.266;23.110;2023-07-08T08:42:23;96149.53;;;23.61;65.91
43450;BME280;29041;42.266;23.110;2023-07-08T08:45:16;96130.09;;;24.65;66.78
43450;BME280;29041;42.266;23.110;2023-07-08T08:48:10;96114.63;;;27.76;54.94
43450;BME280;29041;42.266;23.110;2023-07-08T08:51:03;96119.28;;;29.57;49.53
43450;BME280;29041;42.266;23.110;2023-07-08T08:53:56;96127.91;;;31.45;45.34
43450;BME280;29041;42.266;23.110;2023-07-08T08:56:49;96121.56;;;29.46;48.98
43450;BME280;29041;42.266;23.110;2023-07-08T08:59:42;96121.03;;;30.80;45.32
43450;BME280;29041;42.266;23.110;2023-07-08T09:02:34;96117.31;;;29.83;46.55
43450;BME280;29041;42.266;23.110;2023-07-08T09:05:23;96109.50;;;30.33;44.83
43450;BME280;29041;42.266;23.110;2023-07-08T09:08:13;96108.03;;;30.42;44.82
43450;BME280;29041;42.266;23.110;2023-07-08T09:11:11;96105.66;;;31.36;44.58
43450;BME280;29041;42.266;23.110;2023-07-08T09:14:01;96096.97;;;32.69;40.37
43450;BME280;29041;42.266;23.110;2023-07-08T09:16:55;96106.31;;;29.54;48.30
43450;BME280;29041;42.266;23.110;2023-07-08T09:19:51;96105.81;;;30.97;44.11
43450;BME280;29041;42.266;23.110;2023-07-08T09:22:42;96113.31;;;28.83;46.60
43450;BME280;29041;42.266;23.110;2023-07-08T09:25:33;96108.78;;;27.90;48.36
43450;BME280;29041;42.266;23.110;2023-07-08T09:28:35;96101.19;;;28.47;48.48
43450;BME280;29041;42.266;23.110;2023-07-08T09:31:25;96111.50;;;27.13;50.73
43450;BME280;29041;42.266;23.110;2023-07-08T09:34:14;96103.16;;;28.30;49.50
43450;BME280;29041;42.266;23.110;2023-07-08T09:37:02;96073.84;;;29.97;44.24
43450;BME280;29041;42.266;23.110;2023-07-08T09:39:49;96088.59;;;28.46;47.23
43450;BME280;29041;42.266;23.110;2023-07-08T09:42:38;96090.56;;;29.38;48.81
43450;BME280;29041;42.266;23.110;2023-07-08T09:45:26;96096.78;;;27.00;51.49
43450;BME280;29041;42.266;23.110;2023-07-08T09:48:20;96087.03;;;28.29;49.22
43450;BME280;29041;42.266;23.110;2023-07-08T09:51:08;96073.41;;;30.72;43.77
43450;BME280;29041;42.266;23.110;2023-07-08T09:53:55;96098.13;;;29.50;45.72
43450;BME280;29041;42.266;23.110;2023-07-08T09:56:44;96089.59;;;26.86;51.01
43450;BME280;29041;42.266;23.110;2023-07-08T09:59:42;96086.25;;;26.95;52.53
43450;BME280;29041;42.266;23.110;2023-07-08T10:02:33;96085.38;;;26.54;51.24
43450;BME280;29041;42.266;23.110;2023-07-08T10:05:35;96066.00;;;26.13;53.96
43450;BME280;29041;42.266;23.110;2023-07-08T10:08:24;96081.44;;;26.55;52.74
43450;BME280;29041;42.266;23.110;2023-07-08T10:11:20;96078.56;;;27.26;52.90
43450;BME280;29041;42.266;23.110;2023-07-08T10:14:15;96074.91;;;27.13;50.56
43450;BME280;29041;42.266;23.110;2023-07-08T10:17:07;96068.97;;;26.94;52.37
43450;BME280;29041;42.266;23.110;2023-07-08T10:19:55;96069.22;;;27.00;51.92
43450;BME280;29041;42.266;23.110;2023-07-08T10:22:52;96073.00;;;26.89;51.90
43450;BME280;29041;42.266;23.110;2023-07-08T10:25:55;96075.97;;;26.99;52.14
43450;BME280;29041;42.266;23.110;2023-07-08T10:28:49;96074.81;;;27.36;50.95
43450;BME280;29041;42.266;23.110;2023-07-08T10:31:44;96058.59;;;26.07;51.79
43450;BME280;29041;42.266;23.110;2023-07-08T10:34:40;96040.16;;;26.04;52.95
43450;BME280;29041;42.266;23.110;2023-07-08T10:37:40;96046.47;;;26.75;51.99
43450;BME280;29041;42.266;23.110;2023-07-08T10:40:37;96050.47;;;26.71;52.25
43450;BME280;29041;42.266;23.110;2023-07-08T10:43:44;96051.25;;;26.95;50.92
43450;BME280;29041;42.266;23.110;2023-07-08T10:46:40;96038.22;;;27.36;52.87
43450;BME280;29041;42.266;23.110;2023-07-08T10:49:50;96046.94;;;26.94;51.59
43450;BME280;29041;42.266;23.110;2023-07-08T10:52:54;96046.22;;;26.90;49.91
43450;BME280;29041;42.266;23.110;2023-07-08T10:55:50;96049.47;;;26.61;51.29
43450;BME280;29041;42.266;23.110;2023-07-08T10:58:49;96043.03;;;27.12;50.76
43450;BME280;29041;42.266;23.110;2023-07-08T11:01:45;96044.38;;;27.44;52.09
43450;BME280;29041;42.266;23.110;2023-07-08T11:04:54;96043.22;;;27.41;49.95
43450;BME280;29041;42.266;23.110;2023-07-08T11:07:50;96040.94;;;27.19;50.50
43450;BME280;29041;42.266;23.110;2023-07-08T11:10:48;96051.56;;;27.37;49.75
43450;BME280;29041;42.266;23.110;2023-07-08T11:13:42;96036.41;;;27.49;48.64
43450;BME280;29041;42.266;23.110;2023-07-08T11:16:36;96027.13;;;27.76;50.09
43450;BME280;29041;42.266;23.110;2023-07-08T11:19:30;96032.28;;;27.58;48.79
43450;BME280;29041;42.266;23.110;2023-07-08T11:22:21;96024.31;;;27.43;48.69
43450;BME280;29041;42.266;23.110;2023-07-08T11:25:16;96029.31;;;27.28;48.12
43450;BME280;29041;42.266;23.110;2023-07-08T11:28:12;96024.97;;;27.67;48.40
43450;BME280;29041;42.266;23.110;2023-07-08T11:31:02;96023.81;;;27.48;48.08
43450;BME280;29041;42.266;23.110;2023-07-08T11:33:52;96022.00;;;27.58;47.66
43450;BME280;29041;42.266;23.110;2023-07-08T11:36:41;96010.97;;;27.58;45.96
43450;BME280;29041;42.266;23.110;2023-07-08T11:39:33;96014.94;;;27.00;46.79
43450;BME280;29041;42.266;23.110;2023-07-08T11:42:33;96016.25;;;27.32;45.91
43450;BME280;29041;42.266;23.110;2023-07-08T11:45:27;96011.34;;;27.60;47.66
43450;BME280;29041;42.266;23.110;2023-07-08T11:48:22;96007.25;;;27.85;45.13
43450;BME280;29041;42.266;23.110;2023-07-08T11:51:17;96009.22;;;27.48;45.80
43450;BME280;29041;42.266;23.110;2023-07-08T11:54:12;96007.66;;;26.90;45.39
43450;BME280;29041;42.266;23.110;2023-07-08T11:57:06;96013.75;;;27.38;45.90
43450;BME280;29041;42.266;23.110;2023-07-08T12:00:13;96013.34;;;27.39;46.89
43450;BME280;29041;42.266;23.110;2023-07-08T12:03:21;96005.53;;;27.18;47.90
43450;BME280;29041;42.266;23.110;2023-07-08T12:06:42;95994.94;;;26.96;46.79
43450;BME280;29041;42.266;23.110;2023-07-08T12:09:37;96004.19;;;26.86;48.31
43450;BME280;29041;42.266;23.110;2023-07-08T12:12:30;96015.63;;;27.24;46.98
43450;BME280;29041;42.266;23.110;2023-07-08T12:15:21;96004.47;;;27.12;47.39
43450;BME280;29041;42.266;23.110;2023-07-08T12:18:14;95996.50;;;26.97;49.50
43450;BME280;29041;42.266;23.110;2023-07-08T12:21:02;95995.56;;;27.40;46.82
43450;BME280;29041;42.266;23.110;2023-07-08T12:23:49;95999.53;;;27.76;46.57
43450;BME280;29041;42.266;23.110;2023-07-08T12:26:37;95985.41;;;27.74;47.61
43450;BME280;29041;42.266;23.110;2023-07-08T12:29:24;95987.47;;;27.70;47.35
43450;BME280;29041;42.266;23.110;2023-07-08T12:32:12;96001.63;;;27.15;45.65
43450;BME280;29041;42.266;23.110;2023-07-08T12:35:02;96004.00;;;27.33;46.17
43450;BME280;29041;42.266;23.110;2023-07-08T12:37:52;95985.06;;;27.35;46.90
43450;BME280;29041;42.266;23.110;2023-07-08T12:40:40;95995.13;;;26.65;47.59
43450;BME280;29041;42.266;23.110;2023-07-08T12:43:27;95986.47;;;26.43;46.97
43450;BME280;29041;42.266;23.110;2023-07-08T12:46:16;95980.22;;;26.42;47.36
43450;BME280;29041;42.266;23.110;2023-07-08T12:49:03;95997.06;;;27.08;47.38
43450;BME280;29041;42.266;23.110;2023-07-08T12:51:52;95997.81;;;26.89;44.11
43450;BME280;29041;42.266;23.110;2023-07-08T12:54:39;95997.38;;;27.31;45.05
43450;BME280;29041;42.266;23.110;2023-07-08T12:57:26;95996.47;;;27.17;43.77
43450;BME280;29041;42.266;23.110;2023-07-08T13:00:22;95985.06;;;26.79;44.24
43450;BME280;29041;42.266;23.110;2023-07-08T13:03:13;95976.16;;;27.11;44.63
43450;BME280;29041;42.266;23.110;2023-07-08T13:06:02;95979.72;;;27.28;45.12
43450;BME280;29041;42.266;23.110;2023-07-08T13:08:51;95985.06;;;26.79;41.39
43450;BME280;29041;42.266;23.110;2023-07-08T13:11:38;95970.66;;;26.91;42.29
43450;BME280;29041;42.266;23.110;2023-07-08T13:14:28;95984.38;;;26.71;44.72
43450;BME280;29041;42.266;23.110;2023-07-08T13:17:15;95968.94;;;26.77;44.90
43450;BME280;29041;42.266;23.110;2023-07-08T13:20:04;95976.44;;;26.76;44.50
43450;BME280;29041;42.266;23.110;2023-07-08T13:22:55;95981.03;;;26.83;44.75
43450;BME280;29041;42.266;23.110;2023-07-08T13:25:46;95971.47;;;26.48;43.71
43450;BME280;29041;42.266;23.110;2023-07-08T13:28:37;95974.28;;;26.44;46.20
43450;BME280;29041;42.266;23.110;2023-07-08T13:31:32;95974.97;;;26.28;43.59
43450;BME280;29041;42.266;23.110;2023-07-08T13:34:20;95980.66;;;26.17;44.39
43450;BME280;29041;42.266;23.110;2023-07-08T13:37:12;95972.38;;;26.61;45.01
43450;BME280;29041;42.266;23.110;2023-07-08T13:39:59;95980.25;;;26.83;45.37
43450;BME280;29041;42.266;23.110;2023-07-08T13:42:49;95971.88;;;26.66;43.35
43450;BME280;29041;42.266;23.110;2023-07-08T13:45:37;95969.69;;;26.57;43.39
43450;BME280;29041;42.266;23.110;2023-07-08T13:48:37;95966.63;;;26.75;43.08
43450;BME280;29041;42.266;23.110;2023-07-08T13:51:29;95965.59;;;26.45;42.50
43450;BME280;29041;42.266;23.110;2023-07-08T13:54:19;95953.03;;;26.44;42.39
43450;BME280;29041;42.266;23.110;2023-07-08T13:57:10;95960.25;;;26.58;43.68
43450;BME280;29041;42.266;23.110;2023-07-08T13:59:58;95953.56;;;26.80;41.92
43450;BME280;29041;42.266;23.110;2023-07-08T14:02:46;95954.59;;;26.66;43.34
43450;BME280;29041;42.266;23.110;2023-07-08T14:05:33;95949.63;;;26.81;44.66
43450;BME280;29041;42.266;23.110;2023-07-08T14:08:23;95949.31;;;26.55;44.67
43450;BME280;29041;42.266;23.110;2023-07-08T14:11:10;95951.56;;;26.60;46.25
43450;BME280;29041;42.266;23.110;2023-07-08T14:13:58;95947.59;;;26.61;47.20
43450;BME280;29041;42.266;23.110;2023-07-08T14:16:48;95941.94;;;26.48;45.77
43450;BME280;29041;42.266;23.110;2023-07-08T14:19:36;95942.25;;;26.94;46.37
43450;BME280;29041;42.266;23.110;2023-07-08T14:22:25;95951.47;;;26.64;45.36
43450;BME280;29041;42.266;23.110;2023-07-08T14:25:13;95935.34;;;26.86;47.10
43450;BME280;29041;42.266;23.110;2023-07-08T14:28:02;95926.72;;;26.84;46.42
43450;BME280;29041;42.266;23.110;2023-07-08T14:30:51;95937.50;;;26.74;44.83
43450;BME280;29041;42.266;23.110;2023-07-08T14:33:40;95933.56;;;26.35;44.30
43450;BME280;29041;42.266;23.110;2023-07-08T14:36:28;95931.38;;;26.47;43.97
43450;BME280;29041;42.266;23.110;2023-07-08T14:39:17;95932.66;;;26.82;43.95
43450;BME280;29041;42.266;23.110;2023-07-08T14:42:05;95931.31;;;26.90;44.17